Explorer Of The Seas — C6SE4 — position and weather

sailwx.info

Track history (hours):
 
Tides and Currents Weather Stations Pressure Air Temp Water Temp Dewpoint Dewpoint Depression Visibility Wind Speed Wind Dir Waves Ship Positions

Explorer Of The Seas

Operator: Royal Caribbean Cruises Ltd

Last reported at 2014-Jul-22 02:31 UTC. Time now 2014-Jul-25 08:56 UTC.
Position N 18°02' W 063°51'.

Length 311 m; draft 9.2 m.

Type: Passenger vessel. MMSI: 311316000.

Date/timePositionNaut miles runAvg speedWind from/ knotsBaromVisibWave heightAir tempDewpointWater temp
2014-Jul-22 02:31N 18°02' W 063°51'31 2.7
2014-Jul-21 15:05N 18°17' W 063°22'  
2014-Jul-18 10:03N 37°41' W 070°30'917.5
2014-Jul-18 09:34N 37°47' W 070°37'2645.2
2014-Jul-18 09:00N 38°06' W 071°00'716.3 360 / 121018.7 5.4 22.0 25.0
2014-Jul-18 08:34N 38°01' W 070°54'2119.1
2014-Jul-18 07:28N 38°16' W 071°12'1818.4
2014-Jul-18 06:29N 38°29' W 071°28'1717.9
2014-Jul-18 05:34N 38°41' W 071°43'1818.0
2014-Jul-18 04:34N 38°54' W 071°58'1818.1
2014-Jul-18 03:34N 39°07' W 072°14'1918.6
2014-Jul-18 02:34N 39°21' W 072°30'1818.1
2014-Jul-18 01:34N 39°34' W 072°47'1818.1
2014-Jul-18 00:34N 39°47' W 073°03'1818.1
2014-Jul-17 23:34N 40°00' W 073°19'1817.7
2014-Jul-17 22:32N 40°14' W 073°35'1717.6
2014-Jul-17 21:33N 40°27' W 073°50'1615.9
2014-Jul-17 20:33N 40°39' W 074°03'1 1.1
2014-Jul-17 19:33N 40°40' W 074°04'0 0.0
2014-Jul-17 18:33N 40°40' W 074°04'0 0.0
2014-Jul-17 17:33N 40°40' W 074°04'0 0.0
2014-Jul-17 16:33N 40°40' W 074°04'0 0.0
2014-Jul-17 15:33N 40°40' W 074°04'0 0.0
2014-Jul-17 14:33N 40°40' W 074°04'0 0.0
2014-Jul-17 13:33N 40°40' W 074°04'0 0.0
2014-Jul-17 12:33N 40°40' W 074°04'1 0.7
2014-Jul-17 11:34N 40°39' W 074°03'1010.3
2014-Jul-17 10:33N 40°30' W 073°57'1414.3
2014-Jul-17 09:33N 40°23' W 073°41'1717.5
2014-Jul-17 08:34N 40°12' W 073°23'1717.0
2014-Jul-17 07:34N 40°02' W 073°05'1717.3
2014-Jul-17 06:33N 39°50' W 072°49'1322.4
2014-Jul-17 06:00N 39°42' W 072°36'511.8 090 / 121011.4 5.4 20.0 22.0
2014-Jul-17 05:33N 39°38' W 072°33'1817.7
2014-Jul-17 04:33N 39°24' W 072°18'1817.9
2014-Jul-17 03:34N 39°11' W 072°02'2018.4
2014-Jul-17 02:29N 38°57' W 071°45'1918.7
2014-Jul-17 01:27N 38°42' W 071°29'  
2014-Jul-13 12:32N 37°07' W 069°51'2020.1
2014-Jul-13 11:32N 37°22' W 070°08'1818.5
2014-Jul-13 10:33N 37°35' W 070°23'1918.6
2014-Jul-13 09:33N 37°49' W 070°39'1919.4
2014-Jul-13 08:34N 38°02' W 070°57'1919.0
2014-Jul-13 07:33N 38°16' W 071°13'2019.7
2014-Jul-13 06:33N 38°31' W 071°30'1918.6
2014-Jul-13 05:33N 38°44' W 071°47'1818.1
2014-Jul-13 04:33N 38°57' W 072°03'1717.0
2014-Jul-13 03:33N 39°10' W 072°17'1918.6
2014-Jul-13 02:33N 39°23' W 072°34'1817.5
2014-Jul-13 01:34N 39°36' W 072°50'1616.0
2014-Jul-13 00:33N 39°48' W 073°04'1817.6
2014-Jul-12 23:34N 40°01' W 073°19'1717.3
2014-Jul-12 22:33N 40°14' W 073°34'1616.1
2014-Jul-12 21:33N 40°26' W 073°48'1413.9
2014-Jul-12 20:34N 40°35' W 074°02'5 5.2
2014-Jul-12 19:33N 40°40' W 074°04'0 0.0
2014-Jul-12 18:33N 40°40' W 074°04'0 0.0
2014-Jul-12 17:33N 40°40' W 074°04'0 0.0
2014-Jul-12 16:33N 40°40' W 074°04'0 0.0
2014-Jul-12 15:32N 40°40' W 074°04'0 0.0
2014-Jul-12 14:32N 40°40' W 074°04'0 0.0
2014-Jul-12 13:32N 40°40' W 074°04'0 0.0
2014-Jul-12 12:29N 40°40' W 074°04'0 0.5
2014-Jul-12 11:33N 40°40' W 074°04'10 9.8
2014-Jul-12 10:34N 40°31' W 073°58'1514.6
2014-Jul-12 09:34N 40°19' W 073°46'1919.1
2014-Jul-12 08:33N 40°00' W 073°43'2019.6
2014-Jul-12 07:34N 39°41' W 073°41'2019.9
2014-Jul-12 06:34N 39°21' W 073°39'2019.9
2014-Jul-12 05:33N 39°01' W 073°38'2019.6
2014-Jul-12 04:33N 38°42' W 073°36'1818.7
2014-Jul-12 03:33N 38°23' W 073°34'1818.2
2014-Jul-12 02:34N 38°05' W 073°34'  
Track history (hours):
 
Tides and Currents Weather Stations Pressure Air Temp Water Temp Dewpoint Dewpoint Depression Visibility Wind Speed Wind Dir Waves Ship Positions

Explorer Of The Seas

Operator: Royal Caribbean Cruises Ltd

Last reported at 2014-Jul-22 02:31 UTC. Time now 2014-Jul-25 08:56 UTC.
Position N 18°02' W 063°51'.

Length 311 m; draft 9.2 m.

Type: Passenger vessel. MMSI: 311316000.

Date/timePositionNaut miles runAvg speedWind from/ knotsBaromVisibWave heightAir tempDewpointWater temp
2014-Jul-22 02:31N 18°02' W 063°51'31 2.7
2014-Jul-21 15:05N 18°17' W 063°22'  
2014-Jul-18 10:03N 37°41' W 070°30'917.5
2014-Jul-18 09:34N 37°47' W 070°37'2645.2
2014-Jul-18 09:00N 38°06' W 071°00'716.3 360 / 121018.7 5.4 22.0 25.0
2014-Jul-18 08:34N 38°01' W 070°54'2119.1
2014-Jul-18 07:28N 38°16' W 071°12'1818.4
2014-Jul-18 06:29N 38°29' W 071°28'1717.9
2014-Jul-18 05:34N 38°41' W 071°43'1818.0
2014-Jul-18 04:34N 38°54' W 071°58'1818.1
2014-Jul-18 03:34N 39°07' W 072°14'1918.6
2014-Jul-18 02:34N 39°21' W 072°30'1818.1
2014-Jul-18 01:34N 39°34' W 072°47'1818.1
2014-Jul-18 00:34N 39°47' W 073°03'1818.1
2014-Jul-17 23:34N 40°00' W 073°19'1817.7
2014-Jul-17 22:32N 40°14' W 073°35'1717.6
2014-Jul-17 21:33N 40°27' W 073°50'1615.9
2014-Jul-17 20:33N 40°39' W 074°03'1 1.1
2014-Jul-17 19:33N 40°40' W 074°04'0 0.0
2014-Jul-17 18:33N 40°40' W 074°04'0 0.0
2014-Jul-17 17:33N 40°40' W 074°04'0 0.0
2014-Jul-17 16:33N 40°40' W 074°04'0 0.0
2014-Jul-17 15:33N 40°40' W 074°04'0 0.0
2014-Jul-17 14:33N 40°40' W 074°04'0 0.0
2014-Jul-17 13:33N 40°40' W 074°04'0 0.0
2014-Jul-17 12:33N 40°40' W 074°04'1 0.7
2014-Jul-17 11:34N 40°39' W 074°03'1010.3
2014-Jul-17 10:33N 40°30' W 073°57'1414.3
2014-Jul-17 09:33N 40°23' W 073°41'1717.5
2014-Jul-17 08:34N 40°12' W 073°23'1717.0
2014-Jul-17 07:34N 40°02' W 073°05'1717.3
2014-Jul-17 06:33N 39°50' W 072°49'1322.4
2014-Jul-17 06:00N 39°42' W 072°36'511.8 090 / 121011.4 5.4 20.0 22.0
2014-Jul-17 05:33N 39°38' W 072°33'1817.7
2014-Jul-17 04:33N 39°24' W 072°18'1817.9
2014-Jul-17 03:34N 39°11' W 072°02'2018.4
2014-Jul-17 02:29N 38°57' W 071°45'1918.7
2014-Jul-17 01:27N 38°42' W 071°29'  
2014-Jul-13 12:32N 37°07' W 069°51'2020.1
2014-Jul-13 11:32N 37°22' W 070°08'1818.5
2014-Jul-13 10:33N 37°35' W 070°23'1918.6
2014-Jul-13 09:33N 37°49' W 070°39'1919.4
2014-Jul-13 08:34N 38°02' W 070°57'1919.0
2014-Jul-13 07:33N 38°16' W 071°13'2019.7
2014-Jul-13 06:33N 38°31' W 071°30'1918.6
2014-Jul-13 05:33N 38°44' W 071°47'1818.1
2014-Jul-13 04:33N 38°57' W 072°03'1717.0
2014-Jul-13 03:33N 39°10' W 072°17'1918.6
2014-Jul-13 02:33N 39°23' W 072°34'1817.5
2014-Jul-13 01:34N 39°36' W 072°50'1616.0
2014-Jul-13 00:33N 39°48' W 073°04'1817.6
2014-Jul-12 23:34N 40°01' W 073°19'1717.3
2014-Jul-12 22:33N 40°14' W 073°34'1616.1
2014-Jul-12 21:33N 40°26' W 073°48'1413.9
2014-Jul-12 20:34N 40°35' W 074°02'5 5.2
2014-Jul-12 19:33N 40°40' W 074°04'0 0.0
2014-Jul-12 18:33N 40°40' W 074°04'0 0.0
2014-Jul-12 17:33N 40°40' W 074°04'0 0.0
2014-Jul-12 16:33N 40°40' W 074°04'0 0.0
2014-Jul-12 15:32N 40°40' W 074°04'0 0.0
2014-Jul-12 14:32N 40°40' W 074°04'0 0.0
2014-Jul-12 13:32N 40°40' W 074°04'0 0.0
2014-Jul-12 12:29N 40°40' W 074°04'0 0.5
2014-Jul-12 11:33N 40°40' W 074°04'10 9.8
2014-Jul-12 10:34N 40°31' W 073°58'1514.6
2014-Jul-12 09:34N 40°19' W 073°46'1919.1
2014-Jul-12 08:33N 40°00' W 073°43'2019.6
2014-Jul-12 07:34N 39°41' W 073°41'2019.9
2014-Jul-12 06:34N 39°21' W 073°39'2019.9
2014-Jul-12 05:33N 39°01' W 073°38'2019.6
2014-Jul-12 04:33N 38°42' W 073°36'1818.7
2014-Jul-12 03:33N 38°23' W 073°34'1818.2
2014-Jul-12 02:34N 38°05' W 073°34'  

Dump ship's entire track history